createdAt,value
2019-02-28T00:00:37.224Z,9.15
2019-02-28T00:03:01.992Z,8.91
2019-02-28T00:05:29.382Z,8.99
2019-02-28T00:07:56.796Z,9.05
2019-02-28T00:10:24.188Z,8.99
2019-02-28T00:12:51.600Z,8.93
2019-02-28T00:15:19.000Z,8.80
2019-02-28T00:17:46.529Z,8.80
2019-02-28T00:20:13.918Z,8.71
2019-02-28T00:22:41.369Z,8.70
2019-02-28T00:25:08.758Z,8.86
2019-02-28T00:27:36.668Z,8.86
2019-02-28T00:30:05.995Z,8.94
2019-02-28T00:32:31.492Z,9.00
2019-02-28T00:34:58.894Z,8.92
2019-02-28T00:37:26.307Z,9.01
2019-02-28T00:39:54.244Z,8.95
2019-02-28T00:42:21.639Z,8.77
2019-02-28T00:44:49.046Z,8.60
2019-02-28T00:47:17.110Z,8.51
2019-02-28T00:49:43.865Z,8.42
2019-02-28T00:52:11.266Z,8.35
2019-02-28T00:54:42.984Z,8.49
2019-02-28T00:57:06.164Z,8.50
2019-02-28T00:59:33.620Z,8.53
2019-02-28T01:02:01.037Z,8.51
2019-02-28T01:04:30.032Z,8.33
2019-02-28T01:06:55.925Z,8.15
2019-02-28T01:09:23.352Z,7.96
2019-02-28T01:11:50.744Z,7.91
2019-02-28T01:14:18.152Z,7.87
2019-02-28T01:16:45.586Z,7.93
2019-02-28T01:19:13.151Z,7.99
2019-02-28T01:21:41.450Z,7.96
2019-02-28T01:24:08.924Z,7.88
2019-02-28T01:26:36.377Z,7.97
2019-02-28T01:29:03.807Z,8.05
2019-02-28T01:31:31.282Z,8.04
2019-02-28T01:33:58.893Z,8.03
2019-02-28T01:36:26.206Z,7.99
2019-02-28T01:38:57.781Z,8.02
2019-02-28T01:41:21.026Z,7.88
2019-02-28T01:43:48.451Z,7.80
2019-02-28T01:46:17.197Z,7.56
2019-02-28T01:48:43.480Z,7.49
2019-02-28T01:51:10.970Z,7.60
2019-02-28T01:53:38.390Z,7.71
2019-02-28T01:56:05.852Z,7.82
2019-02-28T01:58:33.311Z,7.91
2019-02-28T02:01:00.705Z,8.03
2019-02-28T02:03:28.107Z,8.04
2019-02-28T02:05:55.516Z,8.06
2019-02-28T02:08:22.909Z,8.05
2019-02-28T02:10:54.973Z,7.95
2019-02-28T02:13:17.744Z,8.00
2019-02-28T02:15:45.179Z,7.86
2019-02-28T02:18:12.653Z,7.58
2019-02-28T02:20:40.049Z,7.45
2019-02-28T02:23:07.487Z,7.39
2019-02-28T02:25:37.609Z,7.38
2019-02-28T02:28:02.388Z,7.39
2019-02-28T02:30:29.788Z,7.34
2019-02-28T02:32:57.201Z,7.32
2019-02-28T02:35:24.615Z,7.40
2019-02-28T02:37:52.015Z,7.43
2019-02-28T02:40:23.120Z,7.40
2019-02-28T02:42:48.631Z,7.47
2019-02-28T02:45:14.273Z,7.55
2019-02-28T02:47:41.694Z,7.55
2019-02-28T02:50:09.094Z,7.46
2019-02-28T02:52:36.666Z,7.29
2019-02-28T02:55:04.081Z,7.18
2019-02-28T02:57:31.487Z,7.20
2019-02-28T02:59:58.895Z,7.13
2019-02-28T03:02:28.765Z,7.02
2019-02-28T03:04:57.998Z,6.88
2019-02-28T03:07:24.576Z,6.74
2019-02-28T03:09:48.564Z,6.66
2019-02-28T03:12:15.964Z,6.69
2019-02-28T03:14:43.379Z,6.74
2019-02-28T03:17:12.161Z,6.75
2019-02-28T03:19:38.217Z,6.74
2019-02-28T03:22:05.631Z,6.80
2019-02-28T03:24:33.104Z,6.86
2019-02-28T03:27:00.976Z,7.02
2019-02-28T03:29:28.412Z,7.00
2019-02-28T03:31:59.123Z,6.84
2019-02-28T03:34:23.333Z,6.63
2019-02-28T03:36:55.370Z,6.59
2019-02-28T03:39:24.158Z,6.60
2019-02-28T03:41:49.158Z,6.61
2019-02-28T03:44:19.789Z,6.64
2019-02-28T03:46:46.454Z,6.71
2019-02-28T03:49:11.469Z,6.74
2019-02-28T03:51:35.416Z,6.67
2019-02-28T03:54:02.835Z,6.70
2019-02-28T03:56:30.252Z,6.70
2019-02-28T03:58:57.635Z,6.81
2019-02-28T04:01:25.108Z,6.88
2019-02-28T04:03:52.602Z,6.87
2019-02-28T04:06:20.003Z,6.82
2019-02-28T04:08:47.408Z,6.64
2019-02-28T04:11:14.910Z,6.51
2019-02-28T04:13:42.319Z,6.41
2019-02-28T04:16:10.081Z,6.39
2019-02-28T04:18:44.218Z,6.40
2019-02-28T04:21:04.563Z,6.45
2019-02-28T04:23:36.193Z,6.60
2019-02-28T04:26:00.302Z,6.66
2019-02-28T04:28:27.692Z,6.47
2019-02-28T04:30:55.357Z,6.38
2019-02-28T04:33:22.936Z,6.28
2019-02-28T04:35:50.381Z,6.12
2019-02-28T04:38:20.510Z,6.18
2019-02-28T04:40:45.304Z,6.17
2019-02-28T04:43:12.749Z,6.20
2019-02-28T04:45:40.141Z,6.08
2019-02-28T04:48:07.664Z,5.92
2019-02-28T04:50:35.113Z,5.95
2019-02-28T04:53:02.572Z,6.15
2019-02-28T04:55:30.711Z,6.26
2019-02-28T04:57:57.507Z,6.23
2019-02-28T05:00:24.910Z,6.26
2019-02-28T05:02:54.860Z,6.39
2019-02-28T05:05:19.758Z,6.51
2019-02-28T05:07:47.146Z,6.57
2019-02-28T05:10:14.543Z,6.61
2019-02-28T05:12:41.951Z,6.61
2019-02-28T05:15:12.329Z,6.56
2019-02-28T05:17:39.728Z,6.46
2019-02-28T05:20:07.344Z,6.52
2019-02-28T05:22:34.628Z,6.42
2019-02-28T05:25:02.033Z,6.35
2019-02-28T05:27:34.933Z,6.33
2019-02-28T05:29:56.897Z,6.34
2019-02-28T05:32:24.321Z,6.30
2019-02-28T05:34:51.863Z,6.17
2019-02-28T05:37:19.272Z,6.07
2019-02-28T05:39:46.699Z,5.97
2019-02-28T05:42:14.161Z,6.01
2019-02-28T05:44:41.566Z,6.05
2019-02-28T05:47:08.954Z,5.89
2019-02-28T05:49:36.354Z,5.82
2019-02-28T05:52:03.807Z,5.96
2019-02-28T05:54:31.224Z,5.92
2019-02-28T05:56:58.631Z,6.00
2019-02-28T05:59:27.404Z,6.11
2019-02-28T06:01:53.473Z,6.24
2019-02-28T06:04:20.889Z,6.21
2019-02-28T06:06:51.251Z,6.01
2019-02-28T06:09:15.967Z,5.92
2019-02-28T06:11:43.946Z,6.00
2019-02-28T06:14:10.863Z,5.92
2019-02-28T06:16:38.273Z,5.85
2019-02-28T06:19:08.345Z,5.93
2019-02-28T06:21:33.133Z,6.04
2019-02-28T06:24:00.587Z,6.17
2019-02-28T06:26:28.067Z,6.24
2019-02-28T06:28:55.472Z,6.36
2019-02-28T06:31:22.876Z,6.45
2019-02-28T06:33:50.362Z,6.43
2019-02-28T06:36:17.859Z,6.47
2019-02-28T06:38:45.278Z,6.48
2019-02-28T06:41:12.756Z,6.49
2019-02-28T06:43:40.161Z,6.56
2019-02-28T06:46:08.758Z,6.70
2019-02-28T06:48:35.951Z,6.80
2019-02-28T06:51:03.371Z,6.77
2019-02-28T06:53:33.678Z,6.97
2019-02-28T06:55:58.182Z,7.24
2019-02-28T06:58:25.596Z,7.57
2019-02-28T07:00:53.006Z,7.73
2019-02-28T07:03:20.421Z,7.70
2019-02-28T07:05:47.848Z,7.63
2019-02-28T07:08:15.262Z,7.78
2019-02-28T07:10:44.934Z,7.99
2019-02-28T07:13:11.848Z,8.12
2019-02-28T07:15:37.642Z,8.04
2019-02-28T07:18:05.175Z,7.86
2019-02-28T07:20:35.023Z,7.94
2019-02-28T07:23:00.021Z,7.90
2019-02-28T07:25:27.594Z,7.98
2019-02-28T07:27:55.239Z,8.22
2019-02-28T07:30:22.761Z,8.70
2019-02-28T07:32:50.357Z,9.10
2019-02-28T07:35:17.790Z,9.11
2019-02-28T07:37:45.218Z,9.08
2019-02-28T07:40:15.519Z,9.32
2019-02-28T07:42:40.079Z,9.62
2019-02-28T07:45:07.518Z,9.83
2019-02-28T07:47:34.970Z,9.90
2019-02-28T07:50:02.391Z,10.26
2019-02-28T07:52:33.536Z,10.70
2019-02-28T07:54:57.216Z,10.89
2019-02-28T07:57:24.674Z,11.13
2019-02-28T07:59:52.116Z,11.27
2019-02-28T08:02:19.586Z,11.34
2019-02-28T08:04:50.663Z,11.51
2019-02-28T08:07:15.777Z,11.47
2019-02-28T08:09:42.980Z,11.45
2019-02-28T08:12:09.914Z,11.49
2019-02-28T08:14:36.857Z,11.61
2019-02-28T08:17:05.417Z,11.67
2019-02-28T08:19:31.886Z,11.93
2019-02-28T08:22:00.220Z,12.18
2019-02-28T08:24:27.645Z,12.35
2019-02-28T08:26:55.051Z,12.23
2019-02-28T08:29:22.469Z,12.27
2019-02-28T08:31:49.890Z,12.40
2019-02-28T08:34:16.864Z,12.55
2019-02-28T08:36:46.758Z,12.63
2019-02-28T08:39:13.399Z,12.74
2019-02-28T08:41:40.346Z,12.63
2019-02-28T08:44:07.313Z,12.38
2019-02-28T08:46:34.506Z,12.45
2019-02-28T08:49:06.308Z,12.58
2019-02-28T08:51:31.028Z,12.51
2019-02-28T08:53:55.854Z,12.48
2019-02-28T08:56:22.856Z,12.62
2019-02-28T08:58:49.846Z,12.93
2019-02-28T09:01:17.256Z,13.23
2019-02-28T09:03:44.667Z,13.35
2019-02-28T09:06:12.076Z,13.35
2019-02-28T09:08:39.568Z,13.55
2019-02-28T09:11:06.543Z,13.69
2019-02-28T09:13:34.079Z,13.71
2019-02-28T09:16:01.891Z,13.87
2019-02-28T09:18:28.963Z,14.13
2019-02-28T09:20:56.543Z,14.29
2019-02-28T09:23:24.128Z,14.28
2019-02-28T09:25:53.387Z,14.48
2019-02-28T09:28:18.655Z,14.81
2019-02-28T09:30:47.779Z,15.03
2019-02-28T09:33:15.258Z,15.25
2019-02-28T09:35:46.249Z,15.49
2019-02-28T09:38:13.421Z,15.75
2019-02-28T09:40:37.536Z,15.76
2019-02-28T09:43:04.966Z,15.77
2019-02-28T09:45:32.406Z,15.86
2019-02-28T09:48:02.001Z,15.82
2019-02-28T09:50:27.375Z,16.01
2019-02-28T09:52:54.775Z,16.45
2019-02-28T09:55:22.240Z,16.80
2019-02-28T09:57:53.710Z,16.91
2019-02-28T10:00:20.582Z,16.95
2019-02-28T10:02:48.002Z,17.16
2019-02-28T10:05:15.417Z,17.11
2019-02-28T10:07:42.855Z,17.15
2019-02-28T10:10:14.037Z,17.19
2019-02-28T10:12:43.060Z,17.32
2019-02-28T10:15:11.568Z,17.49
2019-02-28T10:17:39.030Z,17.52
2019-02-28T10:20:09.156Z,17.82
2019-02-28T10:22:36.608Z,18.28
2019-02-28T10:25:06.531Z,18.49
2019-02-28T10:27:31.431Z,18.60
2019-02-28T10:29:58.864Z,18.96
2019-02-28T10:32:26.334Z,19.28
2019-02-28T10:34:53.755Z,19.06
2019-02-28T10:37:22.766Z,19.19
2019-02-28T10:39:49.026Z,19.19
2019-02-28T10:42:16.430Z,19.07
2019-02-28T10:44:43.855Z,19.62
2019-02-28T10:47:10.838Z,19.85
2019-02-28T10:49:37.802Z,19.85
2019-02-28T10:52:04.783Z,20.22
2019-02-28T10:54:32.184Z,20.83
2019-02-28T10:56:59.138Z,21.45
2019-02-28T10:59:26.107Z,21.87
2019-02-28T11:01:53.543Z,22.27
2019-02-28T11:04:21.015Z,22.60
2019-02-28T11:06:48.453Z,22.79
2019-02-28T11:09:18.329Z,23.00
2019-02-28T11:11:45.619Z,23.20
2019-02-28T11:14:10.891Z,23.32
2019-02-28T11:16:38.528Z,23.17
2019-02-28T11:19:06.068Z,23.25
2019-02-28T11:21:33.518Z,23.39
2019-02-28T11:24:01.044Z,23.53
2019-02-28T11:26:28.609Z,23.79
2019-02-28T11:28:55.546Z,24.17
2019-02-28T11:31:22.589Z,23.93
2019-02-28T11:33:49.741Z,24.00
2019-02-28T11:36:16.732Z,24.55
2019-02-28T11:38:43.674Z,24.81
2019-02-28T11:41:11.095Z,25.34
2019-02-28T11:43:38.668Z,25.62
2019-02-28T11:46:05.957Z,25.98
2019-02-28T11:48:33.384Z,26.47
2019-02-28T11:51:00.803Z,26.66
2019-02-28T11:53:28.297Z,27.01
2019-02-28T11:55:55.720Z,27.04
2019-02-28T11:58:23.147Z,26.79
2019-02-28T12:00:50.706Z,26.55
2019-02-28T12:03:18.114Z,26.54
2019-02-28T12:05:50.139Z,27.07
2019-02-28T12:08:12.949Z,27.28
2019-02-28T12:10:40.545Z,27.43
2019-02-28T12:13:07.992Z,28.08
2019-02-28T12:15:39.167Z,28.33
2019-02-28T12:18:05.794Z,28.54
2019-02-28T12:20:33.237Z,28.86
2019-02-28T12:23:00.695Z,29.38
2019-02-28T12:25:28.119Z,29.31
2019-02-28T12:27:55.607Z,29.46
2019-02-28T12:30:26.852Z,29.81
2019-02-28T12:32:54.263Z,30.21
2019-02-28T12:35:21.776Z,30.46
2019-02-28T12:37:49.327Z,30.67
2019-02-28T12:40:17.439Z,30.87
2019-02-28T12:42:45.073Z,30.79
2019-02-28T12:45:32.265Z,30.20
2019-02-28T12:47:59.756Z,29.82
2019-02-28T12:50:29.451Z,29.67
2019-02-28T12:52:53.927Z,29.24
2019-02-28T12:55:20.888Z,29.66
2019-02-28T12:57:47.863Z,29.51
2019-02-28T13:00:15.633Z,28.76
2019-02-28T13:02:43.525Z,27.50
2019-02-28T13:05:14.818Z,27.51
2019-02-28T13:07:36.538Z,27.93
2019-02-28T13:10:04.090Z,27.78
2019-02-28T13:12:30.640Z,27.36
2019-02-28T13:14:57.738Z,27.60
2019-02-28T13:17:24.661Z,28.04
2019-02-28T13:19:53.204Z,28.75
2019-02-28T13:22:18.866Z,29.67
2019-02-28T13:24:47.566Z,30.23
2019-02-28T13:27:13.550Z,30.93
2019-02-28T13:29:40.974Z,31.04
2019-02-28T13:32:08.617Z,30.78
2019-02-28T13:34:36.039Z,30.52
2019-02-28T13:37:03.501Z,29.32
2019-02-28T13:39:31.594Z,29.24
2019-02-28T13:41:58.705Z,29.17
2019-02-28T13:44:25.757Z,29.53
2019-02-28T13:46:53.168Z,30.18
2019-02-28T13:49:20.556Z,29.78
2019-02-28T13:51:47.966Z,29.73
2019-02-28T13:54:15.369Z,28.80
2019-02-28T13:56:42.775Z,28.85
2019-02-28T13:59:10.338Z,29.75
2019-02-28T14:01:37.757Z,30.20
2019-02-28T14:04:05.177Z,30.53
2019-02-28T14:06:32.617Z,30.82
2019-02-28T14:09:00.011Z,31.20
2019-02-28T14:11:27.461Z,30.50
2019-02-28T14:13:54.871Z,30.62
2019-02-28T14:16:26.362Z,30.63
2019-02-28T14:18:49.793Z,31.18
2019-02-28T14:21:17.895Z,32.16
2019-02-28T14:23:45.289Z,31.90
2019-02-28T14:26:14.051Z,31.58
2019-02-28T14:28:40.921Z,31.85
2019-02-28T14:31:08.357Z,32.30
2019-02-28T14:33:35.756Z,32.94
2019-02-28T14:36:03.195Z,33.24
2019-02-28T14:38:32.826Z,33.60
2019-02-28T14:40:59.401Z,33.74
2019-02-28T14:43:25.503Z,33.66
2019-02-28T14:45:53.084Z,33.81
2019-02-28T14:48:20.492Z,33.95
2019-02-28T14:50:50.734Z,34.76
2019-02-28T14:53:15.378Z,35.40
2019-02-28T14:55:42.775Z,35.34
2019-02-28T14:58:10.330Z,35.31
2019-02-28T15:00:38.987Z,35.39
2019-02-28T15:03:05.290Z,35.59
2019-02-28T15:05:34.503Z,36.10
2019-02-28T15:08:01.884Z,36.88
2019-02-28T15:10:29.306Z,37.17
2019-02-28T15:12:58.661Z,37.65
2019-02-28T15:15:24.476Z,37.16
2019-02-28T15:17:51.877Z,36.89
2019-02-28T15:20:19.305Z,37.28
2019-02-28T15:22:46.793Z,36.17
2019-02-28T15:25:19.409Z,35.16
2019-02-28T15:27:46.054Z,35.18
2019-02-28T15:30:16.258Z,36.53
2019-02-28T15:32:43.683Z,36.34
2019-02-28T15:35:12.514Z,35.95
2019-02-28T15:37:38.530Z,35.31
2019-02-28T15:40:08.667Z,35.42
2019-02-28T15:42:36.099Z,35.55
2019-02-28T15:45:04.120Z,34.46
2019-02-28T15:47:31.089Z,33.98
2019-02-28T15:49:58.504Z,34.24
2019-02-28T15:52:25.963Z,34.00
2019-02-28T15:54:56.520Z,33.85
2019-02-28T15:57:20.988Z,34.15
2019-02-28T15:59:49.738Z,34.50
2019-02-28T16:02:15.906Z,34.19
2019-02-28T16:04:43.306Z,33.96
2019-02-28T16:07:10.762Z,34.20
2019-02-28T16:09:38.208Z,34.25
2019-02-28T16:12:05.625Z,34.68
2019-02-28T16:14:34.691Z,35.20
2019-02-28T16:17:03.375Z,35.24
2019-02-28T16:19:28.032Z,34.54
2019-02-28T16:21:55.626Z,33.58
2019-02-28T16:24:23.463Z,33.80
2019-02-28T16:26:53.526Z,34.27
2019-02-28T16:29:20.652Z,34.56
2019-02-28T16:31:45.750Z,34.19
2019-02-28T16:34:13.186Z,32.71
2019-02-28T16:36:40.646Z,32.32
2019-02-28T16:39:08.057Z,32.25
2019-02-28T16:41:36.850Z,31.52
2019-02-28T16:44:02.688Z,30.17
2019-02-28T16:46:30.268Z,29.12
2019-02-28T16:48:57.523Z,28.49
2019-02-28T16:51:26.304Z,27.79
2019-02-28T16:53:53.194Z,24.35
2019-02-28T16:56:19.813Z,24.35
2019-02-28T16:58:47.243Z,23.01
2019-02-28T17:01:17.456Z,21.10
2019-02-28T17:03:42.817Z,20.04
2019-02-28T17:06:09.491Z,19.15
2019-02-28T17:08:36.911Z,18.59
2019-02-28T17:11:04.325Z,18.20
2019-02-28T17:13:32.016Z,17.93
2019-02-28T17:16:02.374Z,17.73
2019-02-28T17:18:28.635Z,17.48
2019-02-28T17:20:56.218Z,17.17
2019-02-28T17:23:23.616Z,16.98
2019-02-28T17:25:53.572Z,16.89
2019-02-28T17:28:24.430Z,16.88
2019-02-28T17:30:57.368Z,16.74
2019-02-28T17:33:24.785Z,16.62
2019-02-28T17:35:52.219Z,16.42
2019-02-28T17:38:19.676Z,16.38
2019-02-28T17:40:47.121Z,16.29
2019-02-28T17:43:14.579Z,16.17
2019-02-28T17:45:41.971Z,16.13
2019-02-28T17:48:12.728Z,15.98
2019-02-28T17:50:42.834Z,15.84
2019-02-28T17:53:11.490Z,15.69
2019-02-28T17:55:45.663Z,15.52
2019-02-28T17:58:14.043Z,15.37
2019-02-28T18:00:42.240Z,15.26
2019-02-28T18:06:29.363Z,15.28
2019-02-28T18:09:12.691Z,15.12
2019-02-28T18:14:57.004Z,15.04
2019-02-28T18:17:34.270Z,14.77
2019-02-28T18:20:39.284Z,14.62
2019-02-28T18:23:24.883Z,14.39
2019-02-28T18:28:54.836Z,14.49
2019-02-28T18:31:22.216Z,14.36
2019-02-28T18:33:48.858Z,14.32
2019-02-28T18:36:16.453Z,14.24
2019-02-28T18:38:44.061Z,14.14
2019-02-28T18:41:11.441Z,14.15
2019-02-28T18:43:40.427Z,14.13
2019-02-28T18:46:06.301Z,14.12
2019-02-28T18:48:33.762Z,14.17
2019-02-28T18:51:01.157Z,14.16
2019-02-28T18:53:28.607Z,14.18
2019-02-28T18:55:56.003Z,14.15
2019-02-28T18:58:23.429Z,14.17
2019-02-28T19:00:51.215Z,14.12
2019-02-28T19:03:18.604Z,14.00
2019-02-28T19:05:45.996Z,13.85
2019-02-28T19:08:13.416Z,13.81
2019-02-28T19:10:41.021Z,13.73
2019-02-28T19:13:08.662Z,13.65
2019-02-28T19:15:36.086Z,13.59
2019-02-28T19:18:03.544Z,13.56
2019-02-28T19:20:30.953Z,13.52
2019-02-28T19:22:58.555Z,13.46
2019-02-28T19:25:26.061Z,13.39
2019-02-28T19:27:53.463Z,13.35
2019-02-28T19:30:20.894Z,13.30
2019-02-28T19:32:48.294Z,13.23
2019-02-28T19:35:15.713Z,13.16
2019-02-28T19:37:43.141Z,13.16
2019-02-28T19:40:11.324Z,13.11
2019-02-28T19:42:38.743Z,13.10
2019-02-28T19:45:09.981Z,13.13
2019-02-28T19:47:37.364Z,13.08
2019-02-28T19:50:04.777Z,13.08
2019-02-28T19:52:32.211Z,12.96
2019-02-28T19:54:59.648Z,12.95
2019-02-28T19:57:27.050Z,12.99
2019-02-28T19:59:54.483Z,12.98
2019-02-28T20:02:21.970Z,12.98
2019-02-28T20:04:49.374Z,12.98
2019-02-28T20:07:16.806Z,12.99
2019-02-28T20:09:44.284Z,13.02
2019-02-28T20:12:11.815Z,12.91
2019-02-28T20:14:39.206Z,12.73
2019-02-28T20:17:06.617Z,12.73
2019-02-28T20:19:34.148Z,12.77
2019-02-28T20:22:01.578Z,12.83
2019-02-28T20:24:29.022Z,12.82
2019-02-28T20:26:56.417Z,12.79
2019-02-28T20:31:57.619Z,12.93
2019-02-28T20:34:25.143Z,12.93
2019-02-28T20:36:52.619Z,12.94
2019-02-28T20:39:20.095Z,12.92
2019-02-28T20:41:47.543Z,12.94
2019-02-28T20:44:14.934Z,12.81
2019-02-28T20:46:42.387Z,12.83
2019-02-28T20:49:09.855Z,12.73
2019-02-28T20:51:37.353Z,12.78
2019-02-28T20:54:04.874Z,12.89
2019-02-28T20:56:32.378Z,12.93
2019-02-28T20:58:59.978Z,12.96
2019-02-28T21:01:27.370Z,13.00
2019-02-28T21:03:56.630Z,12.90
2019-02-28T21:06:24.121Z,12.90
2019-02-28T21:08:51.047Z,12.95
2019-02-28T21:11:18.716Z,13.01
2019-02-28T21:13:46.146Z,13.05
2019-02-28T21:16:13.551Z,13.14
2019-02-28T21:18:40.984Z,13.14
2019-02-28T21:21:08.432Z,13.05
2019-02-28T21:23:35.935Z,13.08
2019-02-28T21:26:03.330Z,13.19
2019-02-28T21:28:30.772Z,13.22
2019-02-28T21:30:58.174Z,13.21
2019-02-28T21:33:25.789Z,13.20
2019-02-28T21:35:53.198Z,13.23
2019-02-28T21:38:20.631Z,13.21
2019-02-28T21:40:48.023Z,13.18
2019-02-28T21:43:15.424Z,13.18
2019-02-28T21:45:42.843Z,13.19
2019-02-28T21:48:10.597Z,13.22
2019-02-28T21:50:38.023Z,13.27
2019-02-28T21:53:05.411Z,13.31
2019-02-28T21:55:32.851Z,13.18
2019-02-28T21:58:00.282Z,13.16
2019-02-28T22:00:27.680Z,13.18
2019-02-28T22:02:55.086Z,13.18
2019-02-28T22:05:22.566Z,13.25
2019-02-28T22:07:49.963Z,13.29
2019-02-28T22:10:17.477Z,13.18
2019-02-28T22:12:44.982Z,13.12
2019-02-28T22:15:13.977Z,13.07
2019-02-28T22:17:41.634Z,13.05
2019-02-28T22:20:09.145Z,13.09
2019-02-28T22:22:37.632Z,13.09
2019-02-28T22:25:05.091Z,13.08
2019-02-28T22:27:32.720Z,13.03
2019-02-28T22:30:01.654Z,13.04
2019-02-28T22:32:29.309Z,13.07
2019-02-28T22:34:56.991Z,13.05
2019-02-28T22:37:24.546Z,13.06
2019-02-28T22:39:52.967Z,13.04
2019-02-28T22:42:22.421Z,13.04
2019-02-28T22:44:48.142Z,12.94
2019-02-28T22:47:16.326Z,12.90
2019-02-28T22:49:43.864Z,12.85
2019-02-28T22:52:11.358Z,12.92
2019-02-28T22:54:38.803Z,12.98
2019-02-28T22:57:07.932Z,13.06
2019-02-28T22:59:35.473Z,13.06
2019-02-28T23:02:03.084Z,13.09
2019-02-28T23:04:30.624Z,13.16
2019-02-28T23:06:58.027Z,13.16
2019-02-28T23:09:25.578Z,13.15
2019-02-28T23:11:54.023Z,13.21
2019-02-28T23:14:21.603Z,13.23
2019-02-28T23:16:48.997Z,13.34
2019-02-28T23:19:16.403Z,13.31
2019-02-28T23:21:43.845Z,13.29
2019-02-28T23:24:11.254Z,13.30
2019-02-28T23:26:50.434Z,13.37
2019-02-28T23:29:18.028Z,13.33
2019-02-28T23:34:40.106Z,13.43
2019-02-28T23:37:07.532Z,13.41
2019-02-28T23:39:35.121Z,13.42
2019-02-28T23:42:02.552Z,13.36
2019-02-28T23:44:29.936Z,13.30
2019-02-28T23:46:57.335Z,13.22
2019-02-28T23:49:25.127Z,13.20
2019-02-28T23:51:52.532Z,13.18
2019-02-28T23:54:19.935Z,13.14
2019-02-28T23:56:47.347Z,13.14
2019-02-28T23:59:14.776Z,13.05
